createdAt,value
2023-06-26T00:00:05.790Z,17.88
2023-06-26T00:02:34.430Z,18.29
2023-06-26T00:05:03.336Z,18.78
2023-06-26T00:07:31.524Z,18.63
2023-06-26T00:09:59.739Z,18.35
2023-06-26T00:12:28.675Z,18.06
2023-06-26T00:14:56.688Z,17.88
2023-06-26T00:17:24.586Z,18.08
2023-06-26T00:19:52.511Z,18.61
2023-06-26T00:22:20.150Z,18.61
2023-06-26T00:24:47.691Z,18.40
2023-06-26T00:27:15.278Z,18.28
2023-06-26T00:29:44.126Z,18.41
2023-06-26T00:32:11.644Z,18.72
2023-06-26T00:34:39.246Z,18.52
2023-06-26T00:37:06.800Z,19.12
2023-06-26T00:39:34.791Z,19.05
2023-06-26T00:42:02.326Z,18.90
2023-06-26T00:44:29.842Z,18.69
2023-06-26T00:46:58.851Z,18.58
2023-06-26T00:49:26.647Z,18.57
2023-06-26T00:51:54.730Z,19.04
2023-06-26T00:54:23.301Z,19.04
2023-06-26T00:56:50.928Z,19.03
2023-06-26T00:59:18.537Z,19.10
2023-06-26T01:01:46.071Z,18.56
2023-06-26T01:04:18.683Z,19.09
2023-06-26T01:06:49.721Z,19.17
2023-06-26T01:09:18.921Z,18.84
2023-06-26T01:11:46.536Z,18.99
2023-06-26T01:14:14.291Z,19.22
2023-06-26T01:16:43.114Z,19.35
2023-06-26T01:19:13.394Z,19.34
2023-06-26T01:21:45.003Z,19.34
2023-06-26T01:24:21.375Z,19.35
2023-06-26T01:26:52.337Z,19.26
2023-06-26T01:29:20.414Z,19.37
2023-06-26T01:31:50.243Z,19.02
2023-06-26T01:34:18.995Z,18.80
2023-06-26T01:36:46.994Z,18.86
2023-06-26T01:39:17.310Z,18.86
2023-06-26T01:41:45.567Z,18.74
2023-06-26T01:44:21.045Z,18.91
2023-06-26T01:46:56.612Z,19.07
2023-06-26T01:49:33.535Z,19.01
2023-06-26T01:52:07.241Z,18.91
2023-06-26T01:54:38.812Z,18.72
2023-06-26T01:57:06.972Z,18.88
2023-06-26T01:59:36.300Z,18.74
2023-06-26T02:02:03.848Z,18.90
2023-06-26T02:04:31.404Z,18.73
2023-06-26T02:06:58.978Z,18.68
2023-06-26T02:09:27.030Z,18.96
2023-06-26T02:11:54.539Z,18.97
2023-06-26T02:14:22.065Z,19.08
2023-06-26T02:16:51.288Z,18.96
2023-06-26T02:19:22.773Z,18.95
2023-06-26T02:21:50.944Z,18.82
2023-06-26T02:24:18.574Z,18.86
2023-06-26T02:26:46.900Z,18.83
2023-06-26T02:29:14.627Z,18.73
2023-06-26T02:31:42.350Z,18.90
2023-06-26T02:34:11.816Z,18.78
2023-06-26T02:36:40.511Z,18.74
2023-06-26T02:39:08.086Z,18.91
2023-06-26T02:41:35.602Z,18.73
2023-06-26T02:44:03.093Z,18.79
2023-06-26T02:46:30.633Z,18.70
2023-06-26T02:48:58.208Z,18.60
2023-06-26T02:51:27.036Z,18.60
2023-06-26T02:53:54.624Z,18.47
2023-06-26T02:56:22.192Z,18.85
2023-06-26T02:58:49.706Z,18.60
2023-06-26T03:01:18.278Z,18.54
2023-06-26T03:03:48.307Z,18.58
2023-06-26T03:06:16.310Z,18.76
2023-06-26T03:08:45.175Z,18.76
2023-06-26T03:11:12.710Z,18.92
2023-06-26T03:13:40.258Z,19.26
2023-06-26T03:16:07.870Z,19.31
2023-06-26T03:18:35.480Z,19.14
2023-06-26T03:21:03.228Z,18.81
2023-06-26T03:23:30.768Z,18.77
2023-06-26T03:25:59.620Z,18.79
2023-06-26T03:28:27.184Z,18.84
2023-06-26T03:30:54.801Z,18.66
2023-06-26T03:33:22.378Z,18.68
2023-06-26T03:35:49.910Z,18.55
2023-06-26T03:38:17.432Z,18.53
2023-06-26T03:40:44.952Z,18.73
2023-06-26T03:43:13.834Z,18.71
2023-06-26T03:45:41.378Z,18.60
2023-06-26T03:48:09.128Z,18.78
2023-06-26T03:50:36.799Z,18.62
2023-06-26T03:53:04.546Z,18.80
2023-06-26T03:55:32.536Z,18.78
2023-06-26T03:58:00.136Z,18.86
2023-06-26T04:00:29.124Z,18.99
2023-06-26T04:02:56.718Z,19.08
2023-06-26T04:05:24.494Z,18.96
2023-06-26T04:07:52.370Z,19.00
2023-06-26T04:10:20.779Z,19.14
2023-06-26T04:12:48.958Z,19.13
2023-06-26T04:15:16.604Z,19.22
2023-06-26T04:17:45.488Z,19.45
2023-06-26T04:20:14.004Z,19.37
2023-06-26T04:22:41.517Z,19.40
2023-06-26T04:25:09.413Z,19.48
2023-06-26T04:27:38.841Z,19.51
2023-06-26T04:30:09.129Z,19.51
2023-06-26T04:32:36.660Z,19.52
2023-06-26T04:35:05.770Z,19.45
2023-06-26T04:37:33.287Z,19.61
2023-06-26T04:40:00.822Z,19.71
2023-06-26T04:42:28.368Z,19.69
2023-06-26T04:44:55.918Z,19.73
2023-06-26T04:47:23.556Z,19.72
2023-06-26T04:49:51.144Z,19.86
2023-06-26T04:52:20.510Z,20.01
2023-06-26T04:54:48.118Z,20.12
2023-06-26T04:57:15.947Z,20.31
2023-06-26T04:59:43.527Z,20.40
2023-06-26T05:02:11.452Z,20.33
2023-06-26T05:04:39.036Z,20.53
2023-06-26T05:07:06.610Z,20.56
2023-06-26T05:09:35.543Z,20.84
2023-06-26T05:12:04.555Z,21.02
2023-06-26T05:14:32.127Z,20.97
2023-06-26T05:16:59.657Z,21.22
2023-06-26T05:19:27.160Z,21.18
2023-06-26T05:21:54.943Z,21.49
2023-06-26T05:24:24.692Z,21.63
2023-06-26T05:26:54.573Z,21.77
2023-06-26T05:29:22.617Z,21.98
2023-06-26T05:31:51.411Z,22.09
2023-06-26T05:34:19.271Z,22.23
2023-06-26T05:36:46.924Z,22.27
2023-06-26T05:39:14.946Z,22.54
2023-06-26T05:41:43.006Z,22.41
2023-06-26T05:44:11.900Z,22.63
2023-06-26T05:46:40.081Z,22.23
2023-06-26T05:49:07.677Z,22.35
2023-06-26T05:51:35.688Z,22.33
2023-06-26T05:54:03.724Z,22.27
2023-06-26T05:56:32.582Z,22.54
2023-06-26T05:59:00.672Z,22.93
2023-06-26T06:01:29.542Z,22.93
2023-06-26T06:03:57.686Z,23.26
2023-06-26T06:06:25.268Z,23.15
2023-06-26T06:08:52.819Z,23.92
2023-06-26T06:11:20.463Z,24.04
2023-06-26T06:13:47.997Z,23.77
2023-06-26T06:16:15.506Z,23.33
2023-06-26T06:18:44.338Z,23.30
2023-06-26T06:21:11.863Z,23.02
2023-06-26T06:23:40.016Z,23.15
2023-06-26T06:26:07.561Z,23.37
2023-06-26T06:28:35.101Z,23.65
2023-06-26T06:31:02.640Z,24.29
2023-06-26T06:33:30.317Z,23.84
2023-06-26T06:35:59.273Z,24.61
2023-06-26T06:38:26.819Z,25.15
2023-06-26T06:40:54.566Z,25.33
2023-06-26T06:43:22.218Z,24.90
2023-06-26T06:45:49.727Z,26.01
2023-06-26T06:48:17.276Z,25.75
2023-06-26T06:50:44.889Z,24.73
2023-06-26T06:53:13.763Z,26.01
2023-06-26T06:55:41.768Z,25.66
2023-06-26T06:58:09.314Z,26.50
2023-06-26T07:00:37.199Z,25.79
2023-06-26T07:03:05.093Z,26.32
2023-06-26T07:05:32.703Z,27.16
2023-06-26T07:08:02.203Z,25.85
2023-06-26T07:10:31.977Z,26.21
2023-06-26T07:12:59.592Z,26.14
2023-06-26T07:15:27.799Z,25.55
2023-06-26T07:17:55.613Z,25.67
2023-06-26T07:20:23.168Z,26.13
2023-06-26T07:22:50.717Z,28.42
2023-06-26T07:25:18.433Z,27.04
2023-06-26T07:27:47.504Z,28.94
2023-06-26T07:30:15.209Z,26.46
2023-06-26T07:32:43.711Z,28.42
2023-06-26T07:35:11.529Z,26.69
2023-06-26T07:37:39.093Z,27.95
2023-06-26T07:40:07.605Z,27.21
2023-06-26T07:42:35.162Z,25.96
2023-06-26T07:45:10.849Z,26.45
2023-06-26T07:47:38.543Z,26.83
2023-06-26T07:50:06.678Z,27.26
2023-06-26T07:52:34.197Z,27.12
2023-06-26T07:55:01.790Z,27.82
2023-06-26T07:57:29.330Z,27.42
2023-06-26T07:59:56.892Z,28.33
2023-06-26T08:02:26.138Z,29.97
2023-06-26T08:04:53.845Z,30.46
2023-06-26T08:07:21.533Z,30.72
2023-06-26T08:09:49.028Z,30.66
2023-06-26T08:12:16.575Z,29.00
2023-06-26T08:14:44.146Z,29.22
2023-06-26T08:17:11.715Z,28.59
2023-06-26T08:19:40.533Z,28.05
2023-06-26T08:22:08.462Z,29.51
2023-06-26T08:24:38.017Z,31.08
2023-06-26T08:27:07.011Z,31.70
2023-06-26T08:29:34.591Z,31.93
2023-06-26T08:32:03.226Z,29.40
2023-06-26T08:34:30.773Z,31.54
2023-06-26T08:36:59.809Z,29.94
2023-06-26T08:39:27.333Z,30.40
2023-06-26T08:41:55.206Z,30.64
2023-06-26T08:44:24.988Z,30.90
2023-06-26T08:46:52.743Z,29.29
2023-06-26T08:49:23.139Z,28.11
2023-06-26T08:51:54.036Z,29.55
2023-06-26T08:54:26.166Z,29.08
2023-06-26T08:56:53.726Z,32.42
2023-06-26T08:59:21.765Z,32.54
2023-06-26T09:01:49.361Z,31.62
2023-06-26T09:04:17.165Z,30.52
2023-06-26T09:06:45.706Z,30.86
2023-06-26T09:09:13.789Z,31.30
2023-06-26T09:11:42.764Z,32.11
2023-06-26T09:14:11.310Z,32.02
2023-06-26T09:16:42.396Z,33.65
2023-06-26T09:19:13.822Z,33.88
2023-06-26T09:21:41.680Z,31.87
2023-06-26T09:24:10.550Z,34.61
2023-06-26T09:26:39.996Z,34.37
2023-06-26T09:29:09.111Z,33.77
2023-06-26T09:31:41.417Z,32.58
2023-06-26T09:34:10.272Z,34.53
2023-06-26T09:36:40.078Z,34.73
2023-06-26T09:39:11.900Z,31.12
2023-06-26T09:41:40.317Z,34.97
2023-06-26T09:44:09.734Z,35.50
2023-06-26T09:46:38.782Z,35.30
2023-06-26T09:49:07.830Z,34.31
2023-06-26T09:51:36.509Z,35.42
2023-06-26T09:54:05.754Z,35.12
2023-06-26T09:56:33.669Z,35.16
2023-06-26T09:59:03.135Z,34.55
2023-06-26T10:01:32.818Z,35.35
2023-06-26T10:04:02.833Z,34.40
2023-06-26T10:06:35.682Z,36.54
2023-06-26T10:09:06.043Z,36.06
2023-06-26T10:11:39.141Z,35.71
2023-06-26T10:14:16.993Z,36.71
2023-06-26T10:16:48.457Z,36.77
2023-06-26T10:19:20.159Z,35.77
2023-06-26T10:21:47.874Z,35.07
2023-06-26T10:24:15.730Z,36.98
2023-06-26T10:26:45.982Z,36.95
2023-06-26T10:29:14.058Z,37.29
2023-06-26T10:31:43.057Z,35.94
2023-06-26T10:34:11.957Z,37.84
2023-06-26T10:36:39.754Z,36.27
2023-06-26T10:39:08.187Z,37.10
2023-06-26T10:41:46.429Z,36.73
2023-06-26T10:44:24.652Z,35.43
2023-06-26T10:46:53.961Z,37.27
2023-06-26T10:49:25.601Z,37.04
2023-06-26T10:51:55.811Z,32.86
2023-06-26T10:54:23.559Z,35.18
2023-06-26T10:56:52.276Z,34.12
2023-06-26T10:59:21.293Z,31.83
2023-06-26T11:01:56.462Z,35.95
2023-06-26T11:04:39.947Z,34.03
2023-06-26T11:07:17.799Z,32.51
2023-06-26T11:09:57.000Z,34.58
2023-06-26T11:12:38.286Z,30.99
2023-06-26T11:15:06.759Z,32.79
2023-06-26T11:17:34.442Z,34.68
2023-06-26T11:20:04.802Z,31.99
2023-06-26T11:22:33.418Z,31.38
2023-06-26T11:25:01.708Z,32.82
2023-06-26T11:27:33.538Z,34.76
2023-06-26T11:30:01.833Z,32.74
2023-06-26T11:32:30.065Z,30.45
2023-06-26T11:34:57.634Z,31.61
2023-06-26T11:37:26.517Z,32.01
2023-06-26T11:39:54.099Z,33.64
2023-06-26T11:42:22.222Z,33.52
2023-06-26T11:44:50.031Z,33.18
2023-06-26T11:47:17.580Z,31.85
2023-06-26T11:49:45.498Z,34.50
2023-06-26T11:52:13.348Z,31.65
2023-06-26T11:54:42.467Z,32.86
2023-06-26T11:57:10.754Z,29.70
2023-06-26T11:59:39.192Z,31.60
2023-06-26T12:02:08.284Z,31.76
2023-06-26T12:04:36.622Z,30.37
2023-06-26T12:07:08.213Z,28.11
2023-06-26T12:09:36.507Z,26.94
2023-06-26T12:12:06.135Z,31.43
2023-06-26T12:14:33.818Z,31.92
2023-06-26T12:17:06.990Z,28.00
2023-06-26T12:19:35.735Z,28.38
2023-06-26T12:22:08.493Z,26.72
2023-06-26T12:24:38.340Z,26.69
2023-06-26T12:27:10.534Z,25.71
2023-06-26T12:29:38.577Z,27.34
2023-06-26T12:32:09.967Z,26.87
2023-06-26T12:34:39.731Z,27.15
2023-06-26T12:37:10.112Z,25.44
2023-06-26T12:39:48.089Z,27.75
2023-06-26T12:42:17.801Z,24.89
2023-06-26T12:44:45.595Z,26.19
2023-06-26T12:47:15.792Z,25.49
2023-06-26T12:49:44.686Z,25.66
2023-06-26T12:52:15.958Z,27.26
2023-06-26T12:54:45.265Z,25.46
2023-06-26T12:57:15.196Z,25.69
2023-06-26T12:59:44.849Z,26.48
2023-06-26T13:02:13.375Z,25.80
2023-06-26T13:04:42.094Z,26.38
2023-06-26T13:07:10.462Z,25.71
2023-06-26T13:09:39.258Z,23.98
2023-06-26T13:12:08.197Z,26.00
2023-06-26T13:14:37.244Z,23.56
2023-06-26T13:17:09.708Z,24.93
2023-06-26T13:19:37.592Z,24.52
2023-06-26T13:22:05.369Z,24.51
2023-06-26T13:24:32.981Z,25.01
2023-06-26T13:27:00.525Z,22.37
2023-06-26T13:29:28.038Z,23.43
2023-06-26T13:31:57.688Z,24.91
2023-06-26T13:34:28.920Z,23.72
2023-06-26T13:36:56.877Z,22.82
2023-06-26T13:39:24.389Z,22.60
2023-06-26T13:41:51.955Z,23.17
2023-06-26T13:44:31.953Z,23.49
2023-06-26T13:47:04.163Z,23.13
2023-06-26T13:49:33.230Z,23.96
2023-06-26T13:52:01.036Z,23.83
2023-06-26T13:54:28.564Z,24.28
2023-06-26T13:56:59.153Z,24.36
2023-06-26T13:59:27.065Z,23.44
2023-06-26T14:01:54.640Z,22.97
2023-06-26T14:04:22.280Z,24.33
2023-06-26T14:06:51.131Z,23.06
2023-06-26T14:09:18.750Z,22.25
2023-06-26T14:11:46.351Z,23.10
2023-06-26T14:14:13.999Z,23.20
2023-06-26T14:16:42.017Z,23.24
2023-06-26T14:19:16.245Z,23.99
2023-06-26T14:21:43.933Z,22.41
2023-06-26T14:24:13.038Z,22.99
2023-06-26T14:26:40.573Z,23.58
2023-06-26T14:29:08.172Z,23.48
2023-06-26T14:31:35.868Z,23.55
2023-06-26T14:34:04.447Z,23.51
2023-06-26T14:36:33.233Z,24.30
2023-06-26T14:39:04.256Z,22.95
2023-06-26T14:41:33.623Z,23.24
2023-06-26T14:44:02.075Z,23.67
2023-06-26T14:46:30.155Z,23.71
2023-06-26T14:48:58.064Z,23.90
2023-06-26T14:51:27.057Z,23.29
2023-06-26T14:53:54.651Z,24.00
2023-06-26T14:56:22.280Z,24.33
2023-06-26T14:58:52.516Z,23.50
2023-06-26T15:01:20.692Z,23.79
2023-06-26T15:03:48.399Z,24.04
2023-06-26T15:06:16.186Z,24.26
2023-06-26T15:08:43.906Z,24.43
2023-06-26T15:11:11.447Z,25.16
2023-06-26T15:13:38.978Z,25.34
2023-06-26T15:16:08.154Z,24.92
2023-06-26T15:18:35.760Z,25.42
2023-06-26T15:21:04.441Z,24.55
2023-06-26T15:23:32.371Z,24.93
2023-06-26T15:25:59.878Z,25.27
2023-06-26T15:28:27.405Z,25.95
2023-06-26T15:30:55.015Z,25.51
2023-06-26T15:33:23.874Z,25.81
2023-06-26T15:35:51.395Z,26.50
2023-06-26T15:38:19.056Z,25.58
2023-06-26T15:40:46.701Z,24.75
2023-06-26T15:43:14.215Z,24.92
2023-06-26T15:45:41.943Z,24.58
2023-06-26T15:48:10.063Z,24.42
2023-06-26T15:50:38.947Z,24.90
2023-06-26T15:53:06.442Z,24.75
2023-06-26T15:55:34.184Z,25.04
2023-06-26T15:58:01.985Z,24.93
2023-06-26T16:00:29.568Z,24.63
2023-06-26T16:02:57.135Z,24.28
2023-06-26T16:05:24.936Z,24.85
2023-06-26T16:07:57.605Z,24.15
2023-06-26T16:10:25.833Z,25.14
2023-06-26T16:12:53.472Z,24.13
2023-06-26T16:15:21.195Z,23.84
2023-06-26T16:17:49.070Z,23.89
2023-06-26T16:20:17.007Z,25.59
2023-06-26T16:22:44.575Z,24.67
2023-06-26T16:25:13.795Z,24.70
2023-06-26T16:27:43.478Z,24.45
2023-06-26T16:30:12.440Z,24.31
2023-06-26T16:32:40.002Z,23.92
2023-06-26T16:35:09.002Z,23.78
2023-06-26T16:37:36.563Z,24.47
2023-06-26T16:40:04.275Z,24.54
2023-06-26T16:42:33.148Z,23.72
2023-06-26T16:45:00.958Z,24.14
2023-06-26T16:47:30.648Z,24.24
2023-06-26T16:50:00.317Z,23.79
2023-06-26T16:52:27.849Z,23.52
2023-06-26T16:54:55.338Z,23.65
2023-06-26T16:57:22.867Z,23.23
2023-06-26T16:59:51.750Z,23.20
2023-06-26T17:02:19.663Z,23.42
2023-06-26T17:04:47.262Z,23.28
2023-06-26T17:07:14.880Z,24.34
2023-06-26T17:09:42.492Z,23.98
2023-06-26T17:12:10.526Z,23.21
2023-06-26T17:14:38.075Z,22.54
2023-06-26T17:17:07.503Z,23.89
2023-06-26T17:19:37.103Z,23.38
2023-06-26T17:22:05.317Z,22.45
2023-06-26T17:24:34.146Z,22.95
2023-06-26T17:27:11.086Z,22.67
2023-06-26T17:29:38.857Z,23.24
2023-06-26T17:32:09.003Z,22.17
2023-06-26T17:34:37.078Z,22.58
2023-06-26T17:37:05.290Z,22.19
2023-06-26T17:39:33.075Z,22.04
2023-06-26T17:42:02.938Z,22.74
2023-06-26T17:44:30.520Z,22.32
2023-06-26T17:46:58.134Z,22.38
2023-06-26T17:49:26.979Z,22.69
2023-06-26T17:51:54.607Z,22.39
2023-06-26T17:54:22.178Z,22.30
2023-06-26T17:56:49.738Z,21.77
2023-06-26T17:59:17.272Z,22.91
2023-06-26T18:01:45.271Z,22.37
2023-06-26T18:04:13.274Z,22.47
2023-06-26T18:06:42.325Z,22.43
2023-06-26T18:09:09.889Z,21.81
2023-06-26T18:11:38.114Z,21.79
2023-06-26T18:14:05.689Z,21.79
2023-06-26T18:16:33.238Z,21.89
2023-06-26T18:19:00.984Z,21.48
2023-06-26T18:21:29.240Z,21.68
2023-06-26T18:23:58.236Z,21.65
2023-06-26T18:26:25.749Z,21.43
2023-06-26T18:28:54.088Z,21.23
2023-06-26T18:31:22.110Z,20.93
2023-06-26T18:33:49.936Z,21.18
2023-06-26T18:36:17.527Z,21.12
2023-06-26T18:38:45.076Z,21.18
2023-06-26T18:41:14.387Z,21.00
2023-06-26T18:43:44.268Z,20.79
2023-06-26T18:46:12.346Z,20.79
2023-06-26T18:48:39.876Z,21.04
2023-06-26T18:51:07.649Z,20.69
2023-06-26T18:53:35.227Z,20.78
2023-06-26T18:56:02.743Z,20.51
2023-06-26T18:58:31.623Z,20.56
2023-06-26T19:01:00.056Z,20.49
2023-06-26T19:03:28.058Z,20.60
2023-06-26T19:05:55.582Z,20.34
2023-06-26T19:08:23.092Z,20.96
2023-06-26T19:10:50.592Z,20.70
2023-06-26T19:13:18.096Z,20.77
2023-06-26T19:15:46.976Z,20.84
2023-06-26T19:18:14.577Z,20.41
2023-06-26T19:20:42.309Z,20.74
2023-06-26T19:23:09.857Z,21.10
2023-06-26T19:25:37.516Z,20.91
2023-06-26T19:28:05.113Z,20.68
2023-06-26T19:30:33.706Z,20.42
2023-06-26T19:33:02.735Z,20.46
2023-06-26T19:35:30.278Z,20.31
2023-06-26T19:40:32.310Z,20.57
2023-06-26T19:42:59.849Z,19.80
2023-06-26T19:45:27.690Z,19.73
2023-06-26T19:47:55.631Z,20.01
2023-06-26T19:50:24.539Z,19.85
2023-06-26T19:52:52.859Z,19.94
2023-06-26T19:55:20.441Z,20.05
2023-06-26T19:57:49.057Z,19.82
2023-06-26T20:00:18.678Z,19.59
2023-06-26T20:02:46.361Z,19.98
2023-06-26T20:05:13.990Z,19.92
2023-06-26T20:07:42.847Z,19.58
2023-06-26T20:10:10.563Z,19.86
2023-06-26T20:12:38.063Z,19.31
2023-06-26T20:15:06.645Z,19.47
2023-06-26T20:17:34.202Z,19.52
2023-06-26T20:20:01.822Z,19.36
2023-06-26T20:22:29.356Z,19.48
2023-06-26T20:24:58.207Z,19.66
2023-06-26T20:27:25.735Z,19.72
2023-06-26T20:29:53.382Z,19.89
2023-06-26T20:32:21.237Z,19.82
2023-06-26T20:34:49.518Z,19.81
2023-06-26T20:37:17.520Z,19.95
2023-06-26T20:39:45.564Z,19.75
2023-06-26T20:42:15.783Z,19.31
2023-06-26T20:44:44.126Z,19.33
2023-06-26T20:47:14.214Z,19.04
2023-06-26T20:49:43.870Z,19.13
2023-06-26T20:52:12.888Z,19.11
2023-06-26T20:54:41.073Z,18.81
2023-06-26T20:57:10.555Z,18.99
2023-06-26T20:59:39.839Z,18.66
2023-06-26T21:02:08.030Z,18.77
2023-06-26T21:04:38.317Z,18.64
2023-06-26T21:07:07.374Z,18.96
2023-06-26T21:09:36.012Z,18.66
2023-06-26T21:12:04.447Z,18.80
2023-06-26T21:14:32.448Z,18.96
2023-06-26T21:17:01.476Z,19.05
2023-06-26T21:19:29.271Z,18.39
2023-06-26T21:21:56.810Z,18.67
2023-06-26T21:24:24.339Z,18.55
2023-06-26T21:26:51.910Z,18.82
2023-06-26T21:29:19.439Z,18.60
2023-06-26T21:31:47.069Z,18.19
2023-06-26T21:34:15.922Z,18.22
2023-06-26T21:36:43.574Z,18.47
2023-06-26T21:39:11.112Z,18.27
2023-06-26T21:41:38.660Z,17.86
2023-06-26T21:44:06.387Z,18.25
2023-06-26T21:46:34.120Z,17.91
2023-06-26T21:49:03.215Z,17.74
2023-06-26T21:51:32.117Z,17.64
2023-06-26T21:53:59.651Z,17.45
2023-06-26T21:56:27.176Z,17.85
2023-06-26T21:58:54.700Z,17.96
2023-06-26T22:01:22.238Z,18.02
2023-06-26T22:03:49.834Z,17.38
2023-06-26T22:06:17.376Z,17.33
2023-06-26T22:08:46.880Z,17.08
2023-06-26T22:11:14.485Z,16.87
2023-06-26T22:13:42.033Z,17.13
2023-06-26T22:16:09.578Z,17.58
2023-06-26T22:18:37.148Z,17.10
2023-06-26T22:21:07.311Z,17.41
2023-06-26T22:23:35.014Z,17.30
2023-06-26T22:26:04.294Z,17.15
2023-06-26T22:28:31.983Z,17.07
2023-06-26T22:30:59.523Z,17.12
2023-06-26T22:33:27.054Z,17.30
2023-06-26T22:35:54.586Z,17.03
2023-06-26T22:38:22.115Z,16.58
2023-06-26T22:40:49.854Z,16.79
2023-06-26T22:43:18.723Z,17.13
2023-06-26T22:45:46.571Z,17.83
2023-06-26T22:48:14.099Z,17.70
2023-06-26T22:50:41.651Z,16.74
2023-06-26T22:53:09.323Z,16.44
2023-06-26T22:55:37.109Z,17.07
2023-06-26T22:58:04.765Z,16.61
2023-06-26T23:00:33.711Z,16.97
2023-06-26T23:03:01.377Z,16.35
2023-06-26T23:05:28.945Z,17.20
2023-06-26T23:07:58.687Z,16.74
2023-06-26T23:10:26.205Z,16.69
2023-06-26T23:12:55.651Z,17.20
2023-06-26T23:15:23.188Z,16.26
2023-06-26T23:17:52.156Z,16.33
2023-06-26T23:20:20.444Z,16.15
2023-06-26T23:22:47.967Z,15.97
2023-06-26T23:25:16.159Z,15.99
2023-06-26T23:27:43.710Z,16.10
2023-06-26T23:30:12.575Z,16.25
2023-06-26T23:32:41.316Z,16.21
2023-06-26T23:35:11.459Z,16.33
2023-06-26T23:37:38.958Z,16.48
2023-06-26T23:40:10.297Z,16.22
2023-06-26T23:42:38.411Z,15.97
2023-06-26T23:45:06.814Z,15.89
2023-06-26T23:47:34.381Z,15.84
2023-06-26T23:50:01.957Z,15.89
2023-06-26T23:52:30.882Z,15.73
2023-06-26T23:54:58.414Z,16.02
2023-06-26T23:57:25.971Z,15.52
2023-06-26T23:59:53.486Z,15.33
